SWA2743 KSAT-KMDW
Flight info
| Callsign | SWA2743 |
|---|---|
| Flight time | 2h 10m |
| Altitude | 39000 |
| Route | YODUH2 KLNGR FUZ BYP JONEZ ZALDA DIXEE SPI PHEEB ENDEE8 |
| Aircraft | B737/M-SADE2E3GIJ4RWZ/LB1D1 |
Departure
| Time | 2026-04-26 20:22 |
|---|---|
| Airport | San Antonio International Airport (KSAT) |
Arrival
| Time | 2026-04-26 22:33 |
|---|---|
| Airport | Chicago Midway International Airport (KMDW) |
| Time | Latitude | Longitude | Altitude | Speed | Heading |
|---|---|---|---|---|---|
| 2026-04-26 19:38 | 29.52702 | -98.46989 | 797 ft | 0 kts | 310° |
| 2026-04-26 20:14 | 29.52698 | -98.46983 | 797 ft | 4 kts | 311° |
| 2026-04-26 20:15 | 29.52679 | -98.46961 | 797 ft | 4 kts | 321° |
| 2026-04-26 20:15 | 29.52657 | -98.46944 | 797 ft | 4 kts | 341° |
| 2026-04-26 20:15 | 29.52634 | -98.46942 | 797 ft | 3 kts | 35° |
| 2026-04-26 20:15 | 29.52627 | -98.46948 | 797 ft | 0 kts | 40° |
| 2026-04-26 20:18 | 29.52643 | -98.46932 | 797 ft | 7 kts | 40° |
| 2026-04-26 20:18 | 29.52706 | -98.46874 | 797 ft | 15 kts | 32° |
| 2026-04-26 20:19 | 29.52826 | -98.46904 | 797 ft | 22 kts | 347° |
| 2026-04-26 20:19 | 29.52954 | -98.47041 | 797 ft | 29 kts | 313° |
| 2026-04-26 20:19 | 29.53092 | -98.47216 | 797 ft | 30 kts | 308° |
| 2026-04-26 20:19 | 29.53231 | -98.47398 | 797 ft | 30 kts | 313° |
| 2026-04-26 20:20 | 29.53372 | -98.47581 | 797 ft | 31 kts | 310° |
| 2026-04-26 20:20 | 29.53513 | -98.47763 | 797 ft | 31 kts | 312° |
| 2026-04-26 20:20 | 29.53658 | -98.47948 | 797 ft | 31 kts | 310° |
| 2026-04-26 20:20 | 29.53805 | -98.48135 | 797 ft | 32 kts | 310° |
| 2026-04-26 20:21 | 29.53950 | -98.48327 | 797 ft | 32 kts | 311° |
| 2026-04-26 20:21 | 29.54099 | -98.48519 | 797 ft | 32 kts | 313° |
| 2026-04-26 20:21 | 29.54237 | -98.48583 | 797 ft | 24 kts | 44° |
| 2026-04-26 20:21 | 29.54173 | -98.48422 | 797 ft | 40 kts | 132° |
| 2026-04-26 20:22 | 29.53821 | -98.47967 | 797 ft | 110 kts | 132° |
| 2026-04-26 20:22 | 29.53184 | -98.47137 | 821 ft | 162 kts | 131° |
| 2026-04-26 20:22 | 29.52432 | -98.46154 | 1536 ft | 154 kts | 129° |
| 2026-04-26 20:22 | 29.51704 | -98.45199 | 2150 ft | 171 kts | 130° |
| 2026-04-26 20:23 | 29.50814 | -98.44075 | 2383 ft | 204 kts | 131° |
| 2026-04-26 20:23 | 29.49839 | -98.42850 | 3019 ft | 210 kts | 132° |
| 2026-04-26 20:23 | 29.48841 | -98.41609 | 3904 ft | 216 kts | 133° |
| 2026-04-26 20:23 | 29.47762 | -98.40239 | 4425 ft | 251 kts | 134° |
| 2026-04-26 20:24 | 29.46453 | -98.38680 | 4742 ft | 286 kts | 136° |
| 2026-04-26 20:24 | 29.45060 | -98.37069 | 5058 ft | 287 kts | 136° |
| 2026-04-26 20:24 | 29.43667 | -98.35508 | 5010 ft | 279 kts | 137° |
| 2026-04-26 20:24 | 29.42305 | -98.33967 | 4899 ft | 271 kts | 136° |
| 2026-04-26 20:25 | 29.40985 | -98.32474 | 4962 ft | 262 kts | 136° |
| 2026-04-26 20:25 | 29.40553 | -98.31967 | 5005 ft | 261 kts | 135° |
| 2026-04-26 20:25 | 29.38497 | -98.29369 | 5193 ft | 270 kts | 133° |
| 2026-04-26 20:25 | 29.37601 | -98.27440 | 5941 ft | 283 kts | 101° |
| 2026-04-26 20:26 | 29.37732 | -98.25208 | 7240 ft | 285 kts | 76° |
| 2026-04-26 20:26 | 29.38664 | -98.23152 | 8131 ft | 301 kts | 51° |
| 2026-04-26 20:26 | 29.40308 | -98.21627 | 9042 ft | 307 kts | 26° |
| 2026-04-26 20:26 | 29.42349 | -98.20991 | 9972 ft | 311 kts | 360° |
| 2026-04-26 20:27 | 29.44523 | -98.21240 | 10681 ft | 324 kts | 347° |
| 2026-04-26 20:27 | 29.46808 | -98.21839 | 11029 ft | 347 kts | 343° |
| 2026-04-26 20:27 | 29.49172 | -98.22565 | 11832 ft | 354 kts | 343° |
| 2026-04-26 20:27 | 29.51545 | -98.23304 | 12868 ft | 353 kts | 343° |
| 2026-04-26 20:28 | 29.53925 | -98.24059 | 13792 ft | 356 kts | 342° |
| 2026-04-26 20:28 | 29.56320 | -98.24857 | 14689 ft | 359 kts | 341° |
| 2026-04-26 20:28 | 29.57914 | -98.25376 | 15279 ft | 361 kts | 341° |
| 2026-04-26 20:28 | 29.60340 | -98.26134 | 16184 ft | 363 kts | 342° |
| 2026-04-26 20:29 | 29.62799 | -98.26867 | 17080 ft | 365 kts | 342° |
| 2026-04-26 20:29 | 29.65263 | -98.27578 | 17903 ft | 368 kts | 342° |
| 2026-04-26 20:29 | 29.67775 | -98.28286 | 18705 ft | 372 kts | 342° |
| 2026-04-26 20:29 | 29.70299 | -98.28989 | 19468 ft | 376 kts | 341° |
| 2026-04-26 20:30 | 29.72866 | -98.29700 | 20203 ft | 380 kts | 341° |
| 2026-04-26 20:30 | 29.75445 | -98.30414 | 20930 ft | 384 kts | 341° |
| 2026-04-26 20:30 | 29.78063 | -98.31137 | 21625 ft | 388 kts | 341° |
| 2026-04-26 20:30 | 29.80701 | -98.31866 | 22294 ft | 391 kts | 340° |
| 2026-04-26 20:31 | 29.83363 | -98.32602 | 22950 ft | 395 kts | 340° |
| 2026-04-26 20:31 | 29.86050 | -98.33347 | 23533 ft | 399 kts | 340° |
| 2026-04-26 20:31 | 29.88759 | -98.34098 | 24126 ft | 402 kts | 340° |
| 2026-04-26 20:31 | 29.91496 | -98.34858 | 24730 ft | 405 kts | 340° |
| 2026-04-26 20:32 | 29.94248 | -98.35621 | 25307 ft | 408 kts | 340° |
| 2026-04-26 20:32 | 29.96981 | -98.36378 | 25884 ft | 410 kts | 340° |
| 2026-04-26 20:32 | 29.99805 | -98.37162 | 26412 ft | 414 kts | 340° |
| 2026-04-26 20:32 | 30.02615 | -98.37943 | 26919 ft | 417 kts | 339° |
| 2026-04-26 20:33 | 30.05463 | -98.38533 | 27407 ft | 428 kts | 348° |
| 2026-04-26 20:33 | 30.08473 | -98.38591 | 27888 ft | 438 kts | 356° |
| 2026-04-26 20:33 | 30.11541 | -98.38115 | 28334 ft | 451 kts | 6° |
| 2026-04-26 20:33 | 30.14608 | -98.37238 | 28800 ft | 456 kts | 7° |
| 2026-04-26 20:34 | 30.17674 | -98.36277 | 29260 ft | 458 kts | 8° |
| 2026-04-26 20:34 | 30.20755 | -98.35287 | 29687 ft | 462 kts | 8° |
| 2026-04-26 20:34 | 30.23865 | -98.34291 | 30092 ft | 464 kts | 8° |
| 2026-04-26 20:34 | 30.26994 | -98.33303 | 30492 ft | 466 kts | 8° |
| 2026-04-26 20:35 | 30.30135 | -98.32327 | 30866 ft | 469 kts | 7° |
| 2026-04-26 20:35 | 30.33301 | -98.31352 | 31242 ft | 471 kts | 7° |
| 2026-04-26 20:35 | 30.36477 | -98.30381 | 31593 ft | 473 kts | 7° |
| 2026-04-26 20:35 | 30.39663 | -98.29408 | 32009 ft | 473 kts | 6° |
| 2026-04-26 20:36 | 30.42825 | -98.28439 | 32665 ft | 468 kts | 6° |
| 2026-04-26 20:36 | 30.45966 | -98.27475 | 33175 ft | 465 kts | 6° |
| 2026-04-26 20:36 | 30.49100 | -98.26516 | 33526 ft | 466 kts | 5° |
| 2026-04-26 20:36 | 30.52234 | -98.25557 | 33899 ft | 466 kts | 5° |
| 2026-04-26 20:37 | 30.55359 | -98.24600 | 34320 ft | 464 kts | 5° |
| 2026-04-26 20:37 | 30.58477 | -98.23646 | 34649 ft | 464 kts | 5° |
| 2026-04-26 20:37 | 30.61564 | -98.22702 | 34954 ft | 464 kts | 5° |
| 2026-04-26 20:37 | 30.64685 | -98.21744 | 35323 ft | 463 kts | 5° |
| 2026-04-26 20:38 | 30.67799 | -98.20784 | 35710 ft | 462 kts | 5° |
| 2026-04-26 20:38 | 30.70906 | -98.19827 | 36050 ft | 461 kts | 5° |
| 2026-04-26 20:38 | 30.74002 | -98.18874 | 36346 ft | 461 kts | 4° |
| 2026-04-26 20:38 | 30.77104 | -98.17920 | 36632 ft | 460 kts | 4° |
| 2026-04-26 20:39 | 30.80191 | -98.16969 | 37000 ft | 458 kts | 4° |
| 2026-04-26 20:39 | 30.83261 | -98.16019 | 37416 ft | 454 kts | 4° |
| 2026-04-26 20:39 | 30.86307 | -98.15076 | 37818 ft | 450 kts | 4° |
| 2026-04-26 20:39 | 30.89329 | -98.14142 | 38114 ft | 449 kts | 4° |
| 2026-04-26 20:40 | 30.92354 | -98.13212 | 38269 ft | 451 kts | 4° |
| 2026-04-26 20:40 | 30.95390 | -98.12278 | 38443 ft | 452 kts | 4° |
| 2026-04-26 20:40 | 30.98436 | -98.11337 | 38689 ft | 452 kts | 4° |
| 2026-04-26 20:40 | 31.01477 | -98.10395 | 38900 ft | 453 kts | 4° |
| 2026-04-26 20:41 | 31.04541 | -98.09449 | 38861 ft | 457 kts | 3° |
| 2026-04-26 20:41 | 31.10685 | -98.07543 | 38861 ft | 455 kts | 3° |
| 2026-04-26 20:42 | 31.16755 | -98.05653 | 38857 ft | 449 kts | 3° |
| 2026-04-26 20:42 | 31.22754 | -98.03752 | 38866 ft | 457 kts | 7° |
| 2026-04-26 20:42 | 31.25773 | -98.02413 | 38861 ft | 469 kts | 11° |
| 2026-04-26 20:43 | 31.28801 | -98.00894 | 38861 ft | 476 kts | 13° |
| 2026-04-26 20:43 | 31.34889 | -97.97685 | 38855 ft | 479 kts | 13° |
| 2026-04-26 20:44 | 31.40963 | -97.94501 | 38842 ft | 477 kts | 13° |
| 2026-04-26 20:44 | 31.46997 | -97.91402 | 38852 ft | 476 kts | 12° |
| 2026-04-26 20:45 | 31.53071 | -97.88308 | 38851 ft | 475 kts | 12° |
| 2026-04-26 20:45 | 31.59128 | -97.85223 | 38854 ft | 475 kts | 12° |
| 2026-04-26 20:46 | 31.65191 | -97.82126 | 38852 ft | 475 kts | 12° |
| 2026-04-26 20:46 | 31.71245 | -97.79029 | 38851 ft | 474 kts | 12° |
| 2026-04-26 20:47 | 31.77290 | -97.75930 | 38850 ft | 474 kts | 12° |
| 2026-04-26 20:47 | 31.83295 | -97.72848 | 38836 ft | 474 kts | 12° |
| 2026-04-26 20:48 | 31.89355 | -97.69730 | 38842 ft | 475 kts | 12° |
| 2026-04-26 20:48 | 31.95419 | -97.66610 | 38835 ft | 475 kts | 12° |
| 2026-04-26 20:49 | 32.01475 | -97.63489 | 38818 ft | 475 kts | 12° |
| 2026-04-26 20:49 | 32.07528 | -97.60363 | 38816 ft | 475 kts | 13° |
| 2026-04-26 20:50 | 32.13591 | -97.57228 | 38815 ft | 475 kts | 13° |
| 2026-04-26 20:50 | 32.19648 | -97.54092 | 38819 ft | 475 kts | 13° |
| 2026-04-26 20:51 | 32.25657 | -97.50975 | 38810 ft | 474 kts | 13° |
| 2026-04-26 20:51 | 32.31697 | -97.47838 | 38808 ft | 474 kts | 13° |
| 2026-04-26 20:52 | 32.37739 | -97.44696 | 38808 ft | 474 kts | 13° |
| 2026-04-26 20:52 | 32.43790 | -97.41545 | 38801 ft | 474 kts | 13° |
| 2026-04-26 20:53 | 32.49821 | -97.38398 | 38814 ft | 473 kts | 13° |
| 2026-04-26 20:53 | 32.55853 | -97.35247 | 38839 ft | 473 kts | 13° |
| 2026-04-26 20:54 | 32.61866 | -97.32103 | 38846 ft | 472 kts | 13° |
| 2026-04-26 20:54 | 32.67883 | -97.28951 | 38848 ft | 473 kts | 13° |
| 2026-04-26 20:55 | 32.73874 | -97.25808 | 38842 ft | 473 kts | 13° |
| 2026-04-26 20:55 | 32.79895 | -97.22642 | 38830 ft | 473 kts | 13° |
| 2026-04-26 20:56 | 32.85904 | -97.19415 | 38814 ft | 478 kts | 18° |
| 2026-04-26 20:56 | 32.88749 | -97.17258 | 38816 ft | 490 kts | 28° |
| 2026-04-26 20:56 | 32.91353 | -97.14570 | 38810 ft | 502 kts | 38° |
| 2026-04-26 20:57 | 32.95906 | -97.08143 | 38805 ft | 509 kts | 44° |
| 2026-04-26 20:57 | 33.00320 | -97.01542 | 38808 ft | 509 kts | 44° |
| 2026-04-26 20:58 | 33.04740 | -96.95022 | 38807 ft | 508 kts | 43° |
| 2026-04-26 20:58 | 33.09225 | -96.88504 | 38815 ft | 508 kts | 43° |
| 2026-04-26 20:59 | 33.13713 | -96.81998 | 38822 ft | 507 kts | 43° |
| 2026-04-26 20:59 | 33.18193 | -96.75487 | 38825 ft | 507 kts | 43° |
| 2026-04-26 21:00 | 33.22661 | -96.68980 | 38822 ft | 506 kts | 43° |
| 2026-04-26 21:00 | 33.27080 | -96.62524 | 38824 ft | 506 kts | 43° |
| 2026-04-26 21:01 | 33.31539 | -96.56001 | 38828 ft | 505 kts | 43° |
| 2026-04-26 21:01 | 33.35951 | -96.49532 | 38822 ft | 505 kts | 43° |
| 2026-04-26 21:02 | 33.40390 | -96.43012 | 38823 ft | 504 kts | 43° |
| 2026-04-26 21:02 | 33.44802 | -96.36522 | 38804 ft | 498 kts | 43° |
| 2026-04-26 21:03 | 33.49164 | -96.30095 | 38818 ft | 496 kts | 43° |
| 2026-04-26 21:03 | 33.53624 | -96.23854 | 38810 ft | 486 kts | 35° |
| 2026-04-26 21:03 | 33.56180 | -96.21285 | 38807 ft | 474 kts | 25° |
| 2026-04-26 21:04 | 33.58914 | -96.19123 | 38824 ft | 470 kts | 24° |
| 2026-04-26 21:04 | 33.64440 | -96.14910 | 38820 ft | 472 kts | 23° |
| 2026-04-26 21:05 | 33.70003 | -96.10643 | 38825 ft | 482 kts | 24° |
| 2026-04-26 21:05 | 33.75680 | -96.06213 | 38821 ft | 488 kts | 24° |
| 2026-04-26 21:06 | 33.81362 | -96.01737 | 38821 ft | 488 kts | 25° |
| 2026-04-26 21:06 | 33.87041 | -95.97255 | 38819 ft | 488 kts | 25° |
| 2026-04-26 21:07 | 33.92715 | -95.92776 | 38822 ft | 487 kts | 25° |
| 2026-04-26 21:07 | 33.98388 | -95.88295 | 38826 ft | 487 kts | 25° |
| 2026-04-26 21:08 | 34.04051 | -95.83815 | 38823 ft | 486 kts | 25° |
| 2026-04-26 21:08 | 34.09671 | -95.79361 | 38813 ft | 485 kts | 25° |
| 2026-04-26 21:09 | 34.15308 | -95.74886 | 38812 ft | 484 kts | 25° |
| 2026-04-26 21:09 | 34.20932 | -95.70416 | 38814 ft | 483 kts | 25° |
| 2026-04-26 21:10 | 34.26553 | -95.65939 | 38815 ft | 483 kts | 25° |
| 2026-04-26 21:10 | 34.32163 | -95.61466 | 38818 ft | 482 kts | 25° |
| 2026-04-26 21:11 | 34.37727 | -95.57019 | 38807 ft | 483 kts | 26° |
| 2026-04-26 21:11 | 34.43336 | -95.52529 | 38807 ft | 482 kts | 26° |
| 2026-04-26 21:12 | 34.48937 | -95.48039 | 38802 ft | 482 kts | 26° |
| 2026-04-26 21:12 | 34.54326 | -95.43096 | 38818 ft | 491 kts | 36° |
| 2026-04-26 21:13 | 34.59257 | -95.37424 | 38811 ft | 491 kts | 38° |
| 2026-04-26 21:13 | 34.64132 | -95.31685 | 38808 ft | 484 kts | 37° |
| 2026-04-26 21:14 | 34.69000 | -95.26043 | 38802 ft | 482 kts | 37° |
| 2026-04-26 21:14 | 34.73869 | -95.20458 | 38795 ft | 481 kts | 37° |
| 2026-04-26 21:15 | 34.77917 | -95.15819 | 38800 ft | 480 kts | 37° |
| 2026-04-26 21:15 | 34.82774 | -95.10248 | 38790 ft | 480 kts | 37° |
| 2026-04-26 21:16 | 34.87631 | -95.04661 | 38819 ft | 480 kts | 37° |
| 2026-04-26 21:16 | 34.92498 | -94.99049 | 38819 ft | 482 kts | 37° |
| 2026-04-26 21:17 | 34.97381 | -94.93411 | 38817 ft | 484 kts | 37° |
| 2026-04-26 21:17 | 35.02241 | -94.87790 | 38824 ft | 485 kts | 37° |
| 2026-04-26 21:18 | 35.07143 | -94.82111 | 38818 ft | 486 kts | 38° |
| 2026-04-26 21:18 | 35.12044 | -94.76418 | 38825 ft | 486 kts | 38° |
| 2026-04-26 21:19 | 35.16945 | -94.70715 | 38822 ft | 487 kts | 38° |
| 2026-04-26 21:19 | 35.21852 | -94.64996 | 38823 ft | 487 kts | 38° |
| 2026-04-26 21:20 | 35.26767 | -94.59257 | 38820 ft | 488 kts | 38° |
| 2026-04-26 21:20 | 35.31694 | -94.53498 | 38811 ft | 489 kts | 38° |
| 2026-04-26 21:21 | 35.36617 | -94.47735 | 38816 ft | 490 kts | 38° |
| 2026-04-26 21:21 | 35.41512 | -94.41991 | 38812 ft | 490 kts | 38° |
| 2026-04-26 21:22 | 35.46434 | -94.36204 | 38816 ft | 491 kts | 39° |
| 2026-04-26 21:22 | 35.51364 | -94.30397 | 38817 ft | 491 kts | 39° |
| 2026-04-26 21:23 | 35.58762 | -94.21669 | 38824 ft | 492 kts | 39° |
| 2026-04-26 21:23 | 35.63697 | -94.15831 | 38829 ft | 493 kts | 39° |
| 2026-04-26 21:24 | 35.68648 | -94.09962 | 38834 ft | 495 kts | 39° |
| 2026-04-26 21:24 | 35.73601 | -94.04082 | 38838 ft | 496 kts | 39° |
| 2026-04-26 21:25 | 35.78563 | -93.98179 | 38844 ft | 496 kts | 39° |
| 2026-04-26 21:25 | 35.83534 | -93.92257 | 38845 ft | 497 kts | 39° |
| 2026-04-26 21:26 | 35.88503 | -93.86328 | 38848 ft | 497 kts | 39° |
| 2026-04-26 21:26 | 35.93469 | -93.80388 | 38846 ft | 497 kts | 39° |
| 2026-04-26 21:27 | 35.98394 | -93.74485 | 38842 ft | 497 kts | 39° |
| 2026-04-26 21:27 | 36.03342 | -93.68544 | 38862 ft | 496 kts | 40° |
| 2026-04-26 21:28 | 36.08303 | -93.62611 | 38860 ft | 495 kts | 37° |
| 2026-04-26 21:28 | 36.13668 | -93.57341 | 38861 ft | 491 kts | 31° |
| 2026-04-26 21:29 | 36.19200 | -93.52345 | 38867 ft | 491 kts | 31° |
| 2026-04-26 21:29 | 36.24711 | -93.47328 | 38873 ft | 491 kts | 31° |
| 2026-04-26 21:30 | 36.30182 | -93.42256 | 38867 ft | 491 kts | 32° |
| 2026-04-26 21:30 | 36.35638 | -93.37152 | 38873 ft | 491 kts | 32° |
| 2026-04-26 21:31 | 36.41088 | -93.32039 | 38868 ft | 491 kts | 32° |
| 2026-04-26 21:31 | 36.46532 | -93.26925 | 38874 ft | 490 kts | 32° |
| 2026-04-26 21:32 | 36.51971 | -93.21811 | 38874 ft | 490 kts | 31° |
| 2026-04-26 21:32 | 36.57381 | -93.16716 | 38880 ft | 490 kts | 31° |
| 2026-04-26 21:33 | 36.62831 | -93.11576 | 38877 ft | 491 kts | 32° |
| 2026-04-26 21:33 | 36.68266 | -93.06440 | 38874 ft | 491 kts | 31° |
| 2026-04-26 21:34 | 36.73706 | -93.01286 | 38869 ft | 490 kts | 31° |
| 2026-04-26 21:34 | 36.79098 | -92.96169 | 38870 ft | 490 kts | 32° |
| 2026-04-26 21:35 | 36.84526 | -92.91011 | 38868 ft | 490 kts | 32° |
| 2026-04-26 21:35 | 36.89944 | -92.85850 | 38873 ft | 489 kts | 31° |
| 2026-04-26 21:36 | 36.94446 | -92.81555 | 38866 ft | 489 kts | 32° |
| 2026-04-26 21:36 | 37.00766 | -92.75516 | 38864 ft | 489 kts | 31° |
| 2026-04-26 21:37 | 37.06171 | -92.70341 | 38861 ft | 489 kts | 31° |
| 2026-04-26 21:37 | 37.11566 | -92.65165 | 38863 ft | 489 kts | 31° |
| 2026-04-26 21:38 | 37.16959 | -92.59981 | 38872 ft | 488 kts | 31° |
| 2026-04-26 21:38 | 37.22315 | -92.54825 | 38877 ft | 488 kts | 31° |
| 2026-04-26 21:39 | 37.27703 | -92.49629 | 38879 ft | 488 kts | 31° |
| 2026-04-26 21:39 | 37.33104 | -92.44410 | 38869 ft | 489 kts | 31° |
| 2026-04-26 21:40 | 37.38493 | -92.39192 | 38869 ft | 488 kts | 31° |
| 2026-04-26 21:40 | 37.43872 | -92.33973 | 38871 ft | 488 kts | 31° |
| 2026-04-26 21:41 | 37.49231 | -92.28766 | 38862 ft | 488 kts | 31° |
| 2026-04-26 21:41 | 37.54609 | -92.23531 | 38859 ft | 488 kts | 31° |
| 2026-04-26 21:42 | 37.59988 | -92.18285 | 38863 ft | 488 kts | 31° |
| 2026-04-26 21:42 | 37.65365 | -92.13029 | 38847 ft | 488 kts | 31° |
| 2026-04-26 21:43 | 37.70722 | -92.07783 | 38851 ft | 488 kts | 31° |
| 2026-04-26 21:43 | 37.76047 | -92.02560 | 38854 ft | 487 kts | 31° |
| 2026-04-26 21:44 | 37.81411 | -91.97290 | 38856 ft | 487 kts | 31° |
| 2026-04-26 21:44 | 37.86766 | -91.92015 | 38863 ft | 487 kts | 31° |
| 2026-04-26 21:45 | 37.92107 | -91.86747 | 38867 ft | 486 kts | 31° |
| 2026-04-26 21:45 | 37.97408 | -91.81506 | 38879 ft | 486 kts | 31° |
| 2026-04-26 21:46 | 38.02770 | -91.76197 | 38890 ft | 486 kts | 31° |
| 2026-04-26 21:46 | 38.08068 | -91.70943 | 38897 ft | 486 kts | 31° |
| 2026-04-26 21:47 | 38.13405 | -91.65635 | 38897 ft | 487 kts | 31° |
| 2026-04-26 21:47 | 38.18736 | -91.60326 | 38899 ft | 487 kts | 31° |
| 2026-04-26 21:48 | 38.24073 | -91.54999 | 38898 ft | 487 kts | 31° |
| 2026-04-26 21:48 | 38.29393 | -91.49680 | 38909 ft | 486 kts | 31° |
| 2026-04-26 21:49 | 38.34711 | -91.44354 | 38907 ft | 486 kts | 31° |
| 2026-04-26 21:49 | 38.39984 | -91.39063 | 38921 ft | 486 kts | 31° |
| 2026-04-26 21:50 | 38.44424 | -91.34598 | 38918 ft | 485 kts | 31° |
| 2026-04-26 21:50 | 38.50588 | -91.28389 | 38914 ft | 485 kts | 31° |
| 2026-04-26 21:51 | 38.55875 | -91.23052 | 38918 ft | 484 kts | 31° |
| 2026-04-26 21:51 | 38.61059 | -91.17499 | 38906 ft | 488 kts | 36° |
| 2026-04-26 21:52 | 38.66023 | -91.11569 | 38906 ft | 488 kts | 37° |
| 2026-04-26 21:52 | 38.70945 | -91.05599 | 38895 ft | 487 kts | 37° |
| 2026-04-26 21:53 | 38.75862 | -90.99692 | 38890 ft | 487 kts | 36° |
| 2026-04-26 21:53 | 38.80838 | -90.93746 | 38893 ft | 486 kts | 36° |
| 2026-04-26 21:54 | 38.85755 | -90.87867 | 38907 ft | 486 kts | 36° |
| 2026-04-26 21:54 | 38.90694 | -90.81948 | 38915 ft | 485 kts | 36° |
| 2026-04-26 21:55 | 38.95653 | -90.75992 | 38913 ft | 485 kts | 36° |
| 2026-04-26 21:55 | 39.00548 | -90.70102 | 38913 ft | 485 kts | 37° |
| 2026-04-26 21:56 | 39.05471 | -90.64163 | 38927 ft | 484 kts | 37° |
| 2026-04-26 21:56 | 39.10387 | -90.58224 | 38919 ft | 484 kts | 37° |
| 2026-04-26 21:57 | 39.15269 | -90.52313 | 38929 ft | 485 kts | 37° |
| 2026-04-26 21:57 | 39.20185 | -90.46349 | 38931 ft | 485 kts | 37° |
| 2026-04-26 21:58 | 39.25092 | -90.40382 | 38918 ft | 485 kts | 37° |
| 2026-04-26 21:58 | 39.29995 | -90.34409 | 38936 ft | 484 kts | 37° |
| 2026-04-26 21:59 | 39.34889 | -90.28435 | 38936 ft | 484 kts | 37° |
| 2026-04-26 21:59 | 39.39771 | -90.22463 | 38935 ft | 484 kts | 37° |
| 2026-04-26 22:00 | 39.43833 | -90.17486 | 38936 ft | 484 kts | 37° |
| 2026-04-26 22:00 | 39.48719 | -90.11486 | 38949 ft | 484 kts | 37° |
| 2026-04-26 22:01 | 39.54396 | -90.04501 | 38953 ft | 484 kts | 37° |
| 2026-04-26 22:01 | 39.58456 | -89.99498 | 38955 ft | 483 kts | 37° |
| 2026-04-26 22:02 | 39.63328 | -89.93479 | 38957 ft | 483 kts | 38° |
| 2026-04-26 22:02 | 39.68194 | -89.87454 | 38952 ft | 482 kts | 38° |
| 2026-04-26 22:03 | 39.73026 | -89.81461 | 38955 ft | 482 kts | 38° |
| 2026-04-26 22:03 | 39.77874 | -89.75435 | 38963 ft | 482 kts | 38° |
| 2026-04-26 22:04 | 39.82740 | -89.69378 | 38392 ft | 488 kts | 38° |
| 2026-04-26 22:04 | 39.85240 | -89.66449 | 37810 ft | 480 kts | 32° |
| 2026-04-26 22:04 | 39.87882 | -89.63826 | 37157 ft | 475 kts | 30° |
| 2026-04-26 22:05 | 39.90567 | -89.61327 | 36471 ft | 472 kts | 29° |
| 2026-04-26 22:05 | 39.93250 | -89.58876 | 35750 ft | 471 kts | 29° |
| 2026-04-26 22:05 | 39.95926 | -89.56417 | 34928 ft | 472 kts | 30° |
| 2026-04-26 22:05 | 39.98609 | -89.53920 | 34082 ft | 473 kts | 30° |
| 2026-04-26 22:06 | 40.01247 | -89.51433 | 33245 ft | 474 kts | 31° |
| 2026-04-26 22:06 | 40.03902 | -89.48908 | 32663 ft | 469 kts | 31° |
| 2026-04-26 22:06 | 40.06527 | -89.46399 | 32053 ft | 465 kts | 31° |
| 2026-04-26 22:06 | 40.09128 | -89.43910 | 31452 ft | 460 kts | 32° |
| 2026-04-26 22:07 | 40.11699 | -89.41448 | 30853 ft | 456 kts | 32° |
| 2026-04-26 22:07 | 40.14245 | -89.39009 | 30270 ft | 452 kts | 32° |
| 2026-04-26 22:07 | 40.16743 | -89.36615 | 29693 ft | 448 kts | 32° |
| 2026-04-26 22:07 | 40.19247 | -89.34215 | 29087 ft | 444 kts | 32° |
| 2026-04-26 22:08 | 40.21727 | -89.31836 | 28480 ft | 440 kts | 32° |
| 2026-04-26 22:08 | 40.24189 | -89.29472 | 27874 ft | 436 kts | 32° |
| 2026-04-26 22:08 | 40.26620 | -89.27135 | 27271 ft | 432 kts | 33° |
| 2026-04-26 22:08 | 40.29029 | -89.24810 | 26670 ft | 428 kts | 33° |
| 2026-04-26 22:09 | 40.31418 | -89.22501 | 26075 ft | 424 kts | 33° |
| 2026-04-26 22:09 | 40.33787 | -89.20210 | 25480 ft | 420 kts | 33° |
| 2026-04-26 22:09 | 40.36130 | -89.17941 | 24883 ft | 417 kts | 33° |
| 2026-04-26 22:09 | 40.38452 | -89.15690 | 24289 ft | 413 kts | 33° |
| 2026-04-26 22:10 | 40.40826 | -89.13628 | 23731 ft | 405 kts | 25° |
| 2026-04-26 22:10 | 40.43331 | -89.12007 | 23271 ft | 400 kts | 22° |
| 2026-04-26 22:10 | 40.45842 | -89.10455 | 22806 ft | 397 kts | 22° |
| 2026-04-26 22:10 | 40.48306 | -89.08925 | 22340 ft | 396 kts | 23° |
| 2026-04-26 22:11 | 40.50814 | -89.07328 | 21871 ft | 395 kts | 23° |
| 2026-04-26 22:11 | 40.53281 | -89.05738 | 21408 ft | 395 kts | 24° |
| 2026-04-26 22:11 | 40.55716 | -89.04164 | 20941 ft | 394 kts | 24° |
| 2026-04-26 22:11 | 40.58175 | -89.02575 | 20466 ft | 394 kts | 24° |
| 2026-04-26 22:12 | 40.60636 | -89.00982 | 19999 ft | 393 kts | 24° |
| 2026-04-26 22:12 | 40.63094 | -88.99393 | 19541 ft | 393 kts | 24° |
| 2026-04-26 22:12 | 40.65540 | -88.97810 | 19059 ft | 391 kts | 24° |
| 2026-04-26 22:12 | 40.67975 | -88.96234 | 18591 ft | 387 kts | 24° |
| 2026-04-26 22:13 | 40.70381 | -88.94676 | 18130 ft | 382 kts | 25° |
| 2026-04-26 22:13 | 40.72751 | -88.93140 | 17683 ft | 377 kts | 25° |
| 2026-04-26 22:13 | 40.75104 | -88.91614 | 17232 ft | 376 kts | 25° |
| 2026-04-26 22:13 | 40.77443 | -88.90095 | 16793 ft | 375 kts | 25° |
| 2026-04-26 22:14 | 40.79784 | -88.88575 | 16353 ft | 374 kts | 25° |
| 2026-04-26 22:14 | 40.82111 | -88.87062 | 15908 ft | 372 kts | 25° |
| 2026-04-26 22:14 | 40.84432 | -88.85551 | 15468 ft | 371 kts | 25° |
| 2026-04-26 22:14 | 40.86718 | -88.84063 | 15032 ft | 370 kts | 26° |
| 2026-04-26 22:15 | 40.89025 | -88.82563 | 14596 ft | 369 kts | 26° |
| 2026-04-26 22:15 | 40.91329 | -88.81065 | 14165 ft | 367 kts | 26° |
| 2026-04-26 22:15 | 40.93623 | -88.79575 | 13723 ft | 367 kts | 26° |
| 2026-04-26 22:15 | 40.95910 | -88.78086 | 13286 ft | 366 kts | 26° |
| 2026-04-26 22:16 | 40.98195 | -88.76596 | 12854 ft | 364 kts | 26° |
| 2026-04-26 22:16 | 41.00465 | -88.75115 | 12429 ft | 363 kts | 26° |
| 2026-04-26 22:16 | 41.02720 | -88.73643 | 11989 ft | 361 kts | 27° |
| 2026-04-26 22:16 | 41.04972 | -88.72171 | 11558 ft | 359 kts | 27° |
| 2026-04-26 22:17 | 41.07176 | -88.70731 | 11142 ft | 356 kts | 27° |
| 2026-04-26 22:17 | 41.09384 | -88.69286 | 10715 ft | 350 kts | 27° |
| 2026-04-26 22:17 | 41.11546 | -88.67870 | 10288 ft | 343 kts | 27° |
| 2026-04-26 22:17 | 41.13669 | -88.66479 | 9918 ft | 336 kts | 27° |
| 2026-04-26 22:18 | 41.15706 | -88.65145 | 9926 ft | 317 kts | 27° |
| 2026-04-26 22:18 | 41.17641 | -88.63876 | 9868 ft | 303 kts | 27° |
| 2026-04-26 22:18 | 41.19503 | -88.62658 | 9667 ft | 295 kts | 28° |
| 2026-04-26 22:18 | 41.21343 | -88.61452 | 9291 ft | 295 kts | 28° |
| 2026-04-26 22:19 | 41.23172 | -88.60254 | 8947 ft | 292 kts | 28° |
| 2026-04-26 22:19 | 41.24989 | -88.59062 | 8592 ft | 289 kts | 28° |
| 2026-04-26 22:19 | 41.26781 | -88.57886 | 8259 ft | 287 kts | 28° |
| 2026-04-26 22:19 | 41.28554 | -88.56721 | 7973 ft | 280 kts | 28° |
| 2026-04-26 22:20 | 41.30273 | -88.55592 | 7774 ft | 278 kts | 28° |
| 2026-04-26 22:20 | 41.32014 | -88.54449 | 7583 ft | 278 kts | 28° |
| 2026-04-26 22:20 | 41.33750 | -88.53305 | 7399 ft | 279 kts | 28° |
| 2026-04-26 22:20 | 41.35499 | -88.52155 | 7160 ft | 281 kts | 28° |
| 2026-04-26 22:21 | 41.37225 | -88.50948 | 6978 ft | 278 kts | 37° |
| 2026-04-26 22:21 | 41.38550 | -88.49160 | 6885 ft | 268 kts | 54° |
| 2026-04-26 22:21 | 41.39709 | -88.47230 | 6783 ft | 267 kts | 54° |
| 2026-04-26 22:21 | 41.40856 | -88.45310 | 6697 ft | 270 kts | 54° |
| 2026-04-26 22:22 | 41.42036 | -88.43339 | 6614 ft | 271 kts | 54° |
| 2026-04-26 22:22 | 41.43217 | -88.41376 | 6522 ft | 271 kts | 54° |
| 2026-04-26 22:22 | 41.44397 | -88.39420 | 6422 ft | 270 kts | 54° |
| 2026-04-26 22:22 | 41.45572 | -88.37476 | 6344 ft | 269 kts | 54° |
| 2026-04-26 22:23 | 41.46750 | -88.35533 | 6250 ft | 270 kts | 54° |
| 2026-04-26 22:23 | 41.47930 | -88.33588 | 6167 ft | 268 kts | 54° |
| 2026-04-26 22:23 | 41.49101 | -88.31658 | 6053 ft | 268 kts | 54° |
| 2026-04-26 22:23 | 41.50270 | -88.29720 | 5981 ft | 266 kts | 55° |
| 2026-04-26 22:24 | 41.51100 | -88.27605 | 5981 ft | 260 kts | 75° |
| 2026-04-26 22:24 | 41.51639 | -88.25293 | 5982 ft | 262 kts | 76° |
| 2026-04-26 22:24 | 41.52162 | -88.22971 | 5980 ft | 261 kts | 76° |
| 2026-04-26 22:24 | 41.52690 | -88.20646 | 5971 ft | 262 kts | 76° |
| 2026-04-26 22:25 | 41.53224 | -88.18329 | 5980 ft | 261 kts | 76° |
| 2026-04-26 22:25 | 41.53761 | -88.16015 | 5986 ft | 262 kts | 76° |
| 2026-04-26 22:25 | 41.54303 | -88.13683 | 5981 ft | 263 kts | 76° |
| 2026-04-26 22:25 | 41.54848 | -88.11352 | 5976 ft | 263 kts | 76° |
| 2026-04-26 22:26 | 41.55396 | -88.09016 | 5989 ft | 262 kts | 76° |
| 2026-04-26 22:26 | 41.55939 | -88.06693 | 5990 ft | 262 kts | 76° |
| 2026-04-26 22:26 | 41.56483 | -88.04368 | 5989 ft | 262 kts | 76° |
| 2026-04-26 22:26 | 41.57210 | -88.02139 | 5977 ft | 266 kts | 56° |
| 2026-04-26 22:27 | 41.58498 | -88.00363 | 5927 ft | 268 kts | 46° |
| 2026-04-26 22:27 | 41.59896 | -87.98617 | 5345 ft | 273 kts | 46° |
| 2026-04-26 22:27 | 41.61269 | -87.96916 | 4938 ft | 265 kts | 46° |
| 2026-04-26 22:27 | 41.62590 | -87.95271 | 4603 ft | 255 kts | 46° |
| 2026-04-26 22:28 | 41.63878 | -87.93698 | 4326 ft | 245 kts | 44° |
| 2026-04-26 22:28 | 41.65112 | -87.92223 | 4073 ft | 233 kts | 46° |
| 2026-04-26 22:28 | 41.66250 | -87.90797 | 3780 ft | 220 kts | 47° |
| 2026-04-26 22:28 | 41.67334 | -87.89414 | 3471 ft | 209 kts | 47° |
| 2026-04-26 22:29 | 41.68362 | -87.88104 | 3214 ft | 198 kts | 48° |
| 2026-04-26 22:29 | 41.69332 | -87.86867 | 2962 ft | 187 kts | 48° |
| 2026-04-26 22:29 | 41.70244 | -87.85704 | 2738 ft | 175 kts | 48° |
| 2026-04-26 22:29 | 41.71101 | -87.84614 | 2499 ft | 162 kts | 48° |
| 2026-04-26 22:30 | 41.71875 | -87.83628 | 2294 ft | 147 kts | 48° |
| 2026-04-26 22:30 | 41.72583 | -87.82724 | 2094 ft | 132 kts | 49° |
| 2026-04-26 22:30 | 41.73229 | -87.81901 | 1922 ft | 125 kts | 48° |
| 2026-04-26 22:30 | 41.73855 | -87.81101 | 1772 ft | 126 kts | 47° |
| 2026-04-26 22:31 | 41.74499 | -87.80282 | 1592 ft | 127 kts | 47° |
| 2026-04-26 22:31 | 41.75127 | -87.79483 | 1417 ft | 123 kts | 47° |
| 2026-04-26 22:31 | 41.75762 | -87.78697 | 1192 ft | 125 kts | 45° |
| 2026-04-26 22:31 | 41.76406 | -87.77909 | 1050 ft | 128 kts | 48° |
| 2026-04-26 22:32 | 41.77028 | -87.77072 | 949 ft | 126 kts | 48° |
| 2026-04-26 22:32 | 41.77657 | -87.76278 | 749 ft | 124 kts | 45° |
| 2026-04-26 22:32 | 41.78274 | -87.75497 | 640 ft | 120 kts | 47° |
| 2026-04-26 22:32 | 41.78758 | -87.74866 | 638 ft | 50 kts | 44° |
| 2026-04-26 22:33 | 41.78951 | -87.74619 | 633 ft | 23 kts | 53° |
| 2026-04-26 22:33 | 41.78877 | -87.74558 | 633 ft | 1 kts | 228° |
| 2026-04-26 22:33 | 41.78873 | -87.74563 | 634 ft | 1 kts | 227° |
| 2026-04-26 22:34 | 41.78868 | -87.74571 | 630 ft | 4 kts | 227° |
| 2026-04-26 22:34 | 41.78834 | -87.74618 | 629 ft | 10 kts | 226° |
| 2026-04-26 22:34 | 41.78778 | -87.74630 | 628 ft | 11 kts | 128° |
| 2026-04-26 22:34 | 41.78730 | -87.74560 | 636 ft | 8 kts | 135° |
| 2026-04-26 22:35 | 41.78724 | -87.74552 | 628 ft | 0 kts | 135° |